createdAt,value
2018-02-15T15:08:12.594Z,33.77
2018-02-15T15:11:13.282Z,32.30
2018-02-15T15:13:40.936Z,32.13
2018-02-15T15:16:09.281Z,31.37
2018-02-15T15:18:36.892Z,34.23
2018-02-15T15:21:04.469Z,33.10
2018-02-15T15:23:32.079Z,33.33
2018-02-15T15:25:59.668Z,31.60
2018-02-15T15:28:27.271Z,32.77
2018-02-15T15:30:54.873Z,30.00
2018-02-15T15:33:22.448Z,34.13
2018-02-15T15:35:50.099Z,28.43
2018-02-15T15:38:18.446Z,30.47
2018-02-15T15:40:46.127Z,32.57
2018-02-15T15:43:14.326Z,32.63
2018-02-15T15:45:41.901Z,35.30
2018-02-15T15:48:09.520Z,32.03
2018-02-15T15:50:37.101Z,31.20
2018-02-15T15:53:04.689Z,30.40
2018-02-15T15:55:32.277Z,32.63
2018-02-15T15:57:59.855Z,29.97
2018-02-15T16:00:28.314Z,33.17
2018-02-15T16:02:55.903Z,34.80
2018-02-15T16:05:23.482Z,31.73
2018-02-15T16:07:51.104Z,33.77
2018-02-15T16:10:19.504Z,32.97
2018-02-15T16:12:47.137Z,38.73
2018-02-15T16:15:14.729Z,32.97
2018-02-15T16:17:43.073Z,35.17
2018-02-15T16:20:10.668Z,34.47
2018-02-15T16:22:38.246Z,31.80
2018-02-15T16:25:05.848Z,33.23
2018-02-15T16:27:33.448Z,35.03
2018-02-15T16:30:01.031Z,33.60
2018-02-15T16:32:29.409Z,31.20
2018-02-15T16:34:56.993Z,34.30
2018-02-15T16:37:24.625Z,31.57
2018-02-15T16:39:52.965Z,33.30
2018-02-15T16:42:20.552Z,35.50
2018-02-15T16:44:48.173Z,33.90
2018-02-15T16:47:16.038Z,35.90
2018-02-15T16:49:43.674Z,37.67
2018-02-15T16:52:11.262Z,32.70
2018-02-15T16:54:38.842Z,36.23
2018-02-15T16:57:07.209Z,35.57
2018-02-15T16:59:34.812Z,32.60
2018-02-15T17:02:03.197Z,34.50
2018-02-15T17:04:31.544Z,37.00
2018-02-15T17:06:59.123Z,35.50
2018-02-15T17:09:26.737Z,36.50
2018-02-15T17:11:54.316Z,35.43
2018-02-15T17:14:22.488Z,33.87
2018-02-15T17:16:50.845Z,35.80
2018-02-15T17:19:18.437Z,34.47
2018-02-15T17:21:48.035Z,38.67
2018-02-15T17:24:16.565Z,34.93
2018-02-15T17:26:45.514Z,34.23
2018-02-15T17:29:13.104Z,37.43
2018-02-15T17:31:40.681Z,34.07
2018-02-15T17:34:08.278Z,38.43
2018-02-15T17:36:35.883Z,30.30
2018-02-15T17:39:03.853Z,34.17
2018-02-15T17:41:31.449Z,31.20
2018-02-15T17:43:59.039Z,29.10
2018-02-15T17:46:26.641Z,33.83
2018-02-15T17:48:55.018Z,33.57
2018-02-15T17:51:22.640Z,29.60
2018-02-15T17:53:50.274Z,33.40
2018-02-15T17:56:20.209Z,34.27
2018-02-15T17:59:38.224Z,29.83
2018-02-15T18:02:05.828Z,30.43
2018-02-15T18:07:23.958Z,36.33
2018-02-15T18:09:51.914Z,28.27
2018-02-15T18:12:20.301Z,32.33
2018-02-15T18:14:48.673Z,35.37
2018-02-15T18:17:16.306Z,36.77
2018-02-15T18:19:44.668Z,56.97
2018-02-15T18:22:12.314Z,46.17
2018-02-15T18:24:39.951Z,42.87
2018-02-15T18:27:07.545Z,44.00
2018-02-15T18:29:35.166Z,41.30
2018-02-15T18:32:02.750Z,34.00
2018-02-15T18:34:30.389Z,31.10
2018-02-15T18:36:58.741Z,35.67
2018-02-15T18:39:26.326Z,29.33
2018-02-15T18:41:53.930Z,29.43
2018-02-15T18:44:21.566Z,28.57
2018-02-15T18:46:49.169Z,33.10
2018-02-15T18:49:17.530Z,33.53
2018-02-15T18:51:45.153Z,33.80
2018-02-15T18:54:12.740Z,39.67
2018-02-15T18:56:40.325Z,33.13
2018-02-15T18:59:07.966Z,38.97
2018-02-15T19:01:35.545Z,35.47
2018-02-15T19:04:03.170Z,26.97
2018-02-15T19:06:30.748Z,31.17
2018-02-15T19:08:58.359Z,32.47
2018-02-15T19:11:26.461Z,31.03
2018-02-15T19:13:54.070Z,31.97
2018-02-15T19:16:21.772Z,32.43
2018-02-15T19:18:49.416Z,37.40
2018-02-15T19:21:17.124Z,30.83
2018-02-15T19:23:44.803Z,35.60
2018-02-15T19:26:12.470Z,32.87
2018-02-15T19:28:40.093Z,31.83
2018-02-15T19:31:07.673Z,32.13
2018-02-15T19:33:35.375Z,28.70
2018-02-15T19:36:03.973Z,31.20
2018-02-15T19:38:32.362Z,36.07
2018-02-15T19:41:00.746Z,39.73
2018-02-15T19:43:30.240Z,37.70
2018-02-15T19:45:57.911Z,33.03
2018-02-15T19:48:25.524Z,37.57
2018-02-15T19:50:53.654Z,32.97
2018-02-15T19:53:25.395Z,35.97
2018-02-15T19:55:53.054Z,35.67
2018-02-15T19:58:20.744Z,37.90
2018-02-15T20:00:48.391Z,39.97
2018-02-15T20:03:16.073Z,34.37
2018-02-15T20:05:43.730Z,41.40
2018-02-15T20:08:12.121Z,52.57
2018-02-15T20:10:40.529Z,39.70
2018-02-15T20:13:08.999Z,46.07
2018-02-15T20:15:54.484Z,41.77
2018-02-15T20:18:22.093Z,52.13
2018-02-15T20:20:49.782Z,59.77
2018-02-15T20:23:17.625Z,59.27
2018-02-15T20:28:50.477Z,44.67
2018-02-15T20:31:18.203Z,713.93
2018-02-15T20:33:45.864Z,47.73
2018-02-15T20:36:13.526Z,81.77
2018-02-15T20:38:47.131Z,110.47
2018-02-15T20:41:14.761Z,102.23
2018-02-15T20:43:42.398Z,803.40
2018-02-15T20:46:10.101Z,188.20
2018-02-15T20:48:38.452Z,309.97
2018-02-15T20:51:11.637Z,200.67
2018-02-15T20:53:44.902Z,120.30
2018-02-15T20:56:12.508Z,125.17
2018-02-15T20:58:40.113Z,148.17
2018-02-15T21:01:07.729Z,112.50
2018-02-15T21:03:36.064Z,78.73
2018-02-15T21:06:03.665Z,86.90
2018-02-15T21:08:31.289Z,61.87
2018-02-15T21:10:58.881Z,151.23
2018-02-15T21:13:26.488Z,143.13
2018-02-15T21:15:54.072Z,62.13
2018-02-15T21:18:21.673Z,82.57
2018-02-15T21:20:49.279Z,89.13
2018-02-15T21:23:16.881Z,80.07
2018-02-15T21:25:44.495Z,40.57
2018-02-15T21:28:12.086Z,59.77
2018-02-15T21:30:39.690Z,85.67
2018-02-15T21:33:07.285Z,136.63
2018-02-15T21:35:35.660Z,69.20
2018-02-15T21:38:03.252Z,55.70
2018-02-15T21:40:31.604Z,65.90
2018-02-15T21:42:59.204Z,42.40
2018-02-15T21:45:27.596Z,126.40
2018-02-15T21:47:55.964Z,109.67
2018-02-15T21:50:23.545Z,115.67
2018-02-15T21:52:51.160Z,115.80
2018-02-15T21:55:18.745Z,98.03
2018-02-15T21:57:46.400Z,123.77
2018-02-15T22:00:14.020Z,87.77
2018-02-15T22:02:41.600Z,204.57
2018-02-15T22:05:09.206Z,204.47
2018-02-15T22:07:37.561Z,108.00
2018-02-15T22:10:05.287Z,121.00
2018-02-15T22:12:32.897Z,70.93
2018-02-15T22:15:00.501Z,90.97
2018-02-15T22:17:28.876Z,122.70
2018-02-15T22:19:56.420Z,150.17
2018-02-15T22:22:23.994Z,201.07
2018-02-15T22:24:51.532Z,90.40
2018-02-15T22:27:19.481Z,136.23
2018-02-15T22:29:47.827Z,279.00
2018-02-15T22:32:15.403Z,230.37
2018-02-15T22:34:42.971Z,309.53
2018-02-15T22:37:10.516Z,441.97
2018-02-15T22:39:38.092Z,314.43
2018-02-15T22:42:05.664Z,284.60
2018-02-15T22:44:33.272Z,227.23
2018-02-15T22:47:00.834Z,194.07
2018-02-15T22:49:28.388Z,242.87
2018-02-15T22:51:57.520Z,316.80
2018-02-15T22:54:25.140Z,181.73
2018-02-15T22:56:53.475Z,284.97
2018-02-15T22:59:21.028Z,278.43
2018-02-15T23:01:48.630Z,296.33
2018-02-15T23:04:16.196Z,418.40
2018-02-15T23:06:43.748Z,339.63
2018-02-15T23:09:11.324Z,203.90
2018-02-15T23:11:38.889Z,709.30
2018-02-15T23:14:06.451Z,366.67
2018-02-15T23:16:34.005Z,629.00
2018-02-15T23:19:02.661Z,780.77
2018-02-15T23:21:30.211Z,722.87
2018-02-15T23:23:57.753Z,884.03
2018-02-15T23:26:25.327Z,544.97
2018-02-15T23:28:52.871Z,554.80
2018-02-15T23:31:21.251Z,613.00
2018-02-15T23:33:48.784Z,585.07
2018-02-15T23:36:16.387Z,512.67
2018-02-15T23:38:43.935Z,488.37
2018-02-15T23:41:11.500Z,496.47
2018-02-15T23:43:39.073Z,461.90
2018-02-15T23:46:06.613Z,192.90
2018-02-15T23:48:34.188Z,192.50
2018-02-15T23:51:01.736Z,386.83
2018-02-15T23:53:29.315Z,475.50
2018-02-15T23:55:56.864Z,594.70
2018-02-15T23:58:24.420Z,444.83
